Time;durP1;ratioP1;P1;durP2;ratioP2;P2;SDS_P1;SDS_P2;PMS_P1;PMS_P2;Temp;Humidity;BMP_temperature;BMP_pressure;BME280_temperature;BME280_humidity;BME280_pressure;Samples;Min_cycle;Max_cycle;Signal;HPM_P1;HPM_P2
2023/09/14 00:02:18;;;;;;;;;;;;;;;15.93;100.00;96901.75;5166766;27;20015;-82
2023/09/14 00:04:44;;;;;;;;;;;;;;;15.89;100.00;96899.84;5148599;27;20175;-82
2023/09/14 00:07:10;;;;;;;;;;;;;;;15.86;100.00;96900.34;5166909;27;20252;-81
2023/09/14 00:09:35;;;;;;;;;;;;;;;15.82;100.00;96897.38;5148055;27;19960;-72
2023/09/14 00:12:02;;;;;;;;;;;;;;;15.78;100.00;96891.75;5166608;27;19963;-69
2023/09/14 00:14:28;;;;;;;;;;;;;;;15.76;100.00;96890.38;5166896;27;19946;-70
2023/09/14 00:16:54;;;;;;;;;;;;;;;15.74;100.00;96887.19;5167192;27;19961;-69
2023/09/14 00:19:20;;;;;;;;;;;;;;;15.73;100.00;96891.66;5166900;27;20019;-70
2023/09/14 00:21:46;;;;;;;;;;;;;;;15.73;100.00;96904.09;5148084;27;19965;-70
2023/09/14 00:24:12;;;;;;;;;;;;;;;15.70;100.00;96899.25;5166709;27;19952;-70
2023/09/14 00:26:38;;;;;;;;;;;;;;;15.68;100.00;96899.47;5166607;27;19956;-70
2023/09/14 00:29:03;;;;;;;;;;;;;;;15.66;100.00;96898.13;5166153;27;19943;-79
2023/09/14 00:31:29;;;;;;;;;;;;;;;15.62;100.00;96895.97;5166428;27;19987;-78
2023/09/14 00:33:56;;;;;;;;;;;;;;;15.59;100.00;96904.34;5166363;27;19954;-78
2023/09/14 00:36:22;;;;;;;;;;;;;;;15.55;100.00;96899.78;5166282;27;19959;-78
2023/09/14 00:38:48;;;;;;;;;;;;;;;15.52;100.00;96897.63;5148046;27;20000;-78
2023/09/14 00:41:13;;;;;;;;;;;;;;;15.49;100.00;96901.53;5166048;27;19996;-78
2023/09/14 00:43:40;;;;;;;;;;;;;;;15.48;100.00;96902.59;5166459;27;19952;-78
2023/09/14 00:46:07;;;;;;;;;;;;;;;15.46;100.00;96895.94;5166353;27;20149;-70
2023/09/14 00:48:35;;;;;;;;;;;;;;;15.42;100.00;96906.97;5166332;27;20163;-75
2023/09/14 00:51:01;;;;;;;;;;;;;;;15.41;100.00;96897.44;5166328;27;20123;-75
2023/09/14 00:53:27;;;;;;;;;;;;;;;15.42;100.00;96900.88;5148018;27;20159;-75
2023/09/14 00:55:54;;;;;;;;;;;;;;;15.43;100.00;96908.59;5166393;27;20015;-76
2023/09/14 00:58:20;;;;;;;;;;;;;;;15.40;100.00;96901.13;5147593;27;19942;-76
2023/09/14 01:00:47;;;;;;;;;;;;;;;15.39;100.00;96907.47;5165962;27;19955;-76
2023/09/14 01:03:13;;;;;;;;;;;;;;;15.37;100.00;96900.78;5166035;27;19962;-76
2023/09/14 01:05:39;;;;;;;;;;;;;;;15.37;100.00;96908.72;5166086;27;19966;-72
2023/09/14 01:08:05;;;;;;;;;;;;;;;15.35;100.00;96902.84;5166077;27;20001;-71
2023/09/14 01:10:31;;;;;;;;;;;;;;;15.34;100.00;96894.13;5169835;27;19963;-71
2023/09/14 01:12:57;;;;;;;;;;;;;;;15.35;100.00;96894.94;5170064;27;20293;-71
2023/09/14 01:15:38;;;;;;;;;;;;;;;15.33;100.00;96899.66;5170124;27;19957;-72
2023/09/14 01:18:12;;;;;;;;;;;;;;;15.33;100.00;96897.84;5170226;27;20100;-72
2023/09/14 01:20:47;;;;;;;;;;;;;;;15.33;100.00;96897.00;5170176;27;19961;-70
2023/09/14 01:23:30;;;;;;;;;;;;;;;15.30;100.00;96910.72;5169731;27;19962;-82
2023/09/14 01:25:56;;;;;;;;;;;;;;;15.30;100.00;96902.78;5169764;27;19953;-83
2023/09/14 01:28:22;;;;;;;;;;;;;;;15.30;100.00;96900.94;5169775;27;19960;-83
2023/09/14 01:30:48;;;;;;;;;;;;;;;15.31;100.00;96899.91;5169741;27;19997;-84
2023/09/14 01:33:14;;;;;;;;;;;;;;;15.32;100.00;96906.78;5169737;27;20005;-84
2023/09/14 01:35:46;;;;;;;;;;;;;;;15.34;100.00;96896.78;5169640;27;19954;-83
2023/09/14 01:38:12;;;;;;;;;;;;;;;15.35;100.00;96895.75;5169745;27;19955;-83
2023/09/14 01:40:38;;;;;;;;;;;;;;;15.38;100.00;96911.13;5169250;27;19967;-85
2023/09/14 01:43:04;;;;;;;;;;;;;;;15.42;100.00;96908.81;5169798;27;19960;-74
2023/09/14 01:45:31;;;;;;;;;;;;;;;15.46;100.00;96912.59;5169713;27;19952;-73
2023/09/14 01:47:56;;;;;;;;;;;;;;;15.45;100.00;96903.03;5169367;27;19982;-73
2023/09/14 01:50:22;;;;;;;;;;;;;;;15.49;100.00;96911.31;5169675;27;19951;-74
2023/09/14 01:52:49;;;;;;;;;;;;;;;15.52;100.00;96910.84;5169223;27;20240;-73
2023/09/14 01:55:16;;;;;;;;;;;;;;;15.52;100.00;96909.00;5169143;27;19953;-74
2023/09/14 01:57:42;;;;;;;;;;;;;;;15.55;100.00;96911.16;5169166;27;19959;-76
2023/09/14 02:00:08;;;;;;;;;;;;;;;15.57;100.00;96917.00;5169200;27;19997;-73
2023/09/14 02:02:34;;;;;;;;;;;;;;;15.60;100.00;96911.25;5169185;27;19954;-70
2023/09/14 02:04:59;;;;;;;;;;;;;;;15.65;100.00;96917.69;5169137;27;20287;-71
2023/09/14 02:07:25;;;;;;;;;;;;;;;15.68;100.00;96911.91;5150695;27;20303;-70
2023/09/14 02:09:51;;;;;;;;;;;;;;;15.68;100.00;96912.69;5168665;27;20194;-70
2023/09/14 02:12:17;;;;;;;;;;;;;;;15.70;100.00;96921.19;5169250;27;19962;-70
2023/09/14 02:14:43;;;;;;;;;;;;;;;15.69;100.00;96916.16;5169064;27;19958;-71
2023/09/14 02:17:09;;;;;;;;;;;;;;;15.68;100.00;96915.34;5168633;27;19947;-76
2023/09/14 02:19:35;;;;;;;;;;;;;;;15.69;100.00;96913.53;5168264;27;19961;-72
2023/09/14 02:22:00;;;;;;;;;;;;;;;15.70;100.00;96909.81;5168030;27;19951;-72
2023/09/14 02:24:27;;;;;;;;;;;;;;;15.70;100.00;96913.25;5168596;27;19997;-73
2023/09/14 02:26:54;;;;;;;;;;;;;;;15.70;100.00;96910.63;5168510;27;19950;-72
2023/09/14 02:29:20;;;;;;;;;;;;;;;15.71;100.00;96909.59;5150084;27;20153;-73
2023/09/14 02:31:46;;;;;;;;;;;;;;;15.72;100.00;96913.06;5168637;27;19953;-72
2023/09/14 02:34:11;;;;;;;;;;;;;;;15.68;100.00;96902.13;5168518;27;20015;-82
2023/09/14 02:36:37;;;;;;;;;;;;;;;15.67;100.00;96916.41;5150274;27;19987;-73
2023/09/14 02:39:03;;;;;;;;;;;;;;;15.67;100.00;96921.69;5150208;27;19959;-79
2023/09/14 02:41:29;;;;;;;;;;;;;;;15.68;100.00;96920.63;5168625;27;19974;-78
2023/09/14 02:43:54;;;;;;;;;;;;;;;15.69;100.00;96919.59;5168559;27;19951;-78
2023/09/14 02:46:20;;;;;;;;;;;;;;;15.69;100.00;96919.59;5168053;27;19941;-79
2023/09/14 02:48:46;;;;;;;;;;;;;;;15.70;100.00;96921.19;5155358;27;20010;-79
2023/09/14 02:51:11;;;;;;;;;;;;;;;15.73;100.00;96922.59;5168046;27;20273;-78
2023/09/14 02:53:37;;;;;;;;;;;;;;;15.74;100.00;96919.69;5149750;27;20237;-75
2023/09/14 02:56:08;;;;;;;;;;;;;;;15.77;100.00;96929.00;5149697;27;20179;-79
2023/09/14 02:58:33;;;;;;;;;;;;;;;15.79;100.00;96932.19;5167691;27;20243;-79
2023/09/14 03:01:05;;;;;;;;;;;;;;;15.78;100.00;96934.06;5168072;27;19963;-79
2023/09/14 03:03:31;;;;;;;;;;;;;;;15.76;100.00;96925.56;5168202;27;20195;-79
2023/09/14 03:05:57;;;;;;;;;;;;;;;15.78;100.00;96930.63;5168125;27;19985;-79
2023/09/14 03:08:23;;;;;;;;;;;;;;;15.79;100.00;96925.09;5167983;27;19969;-79
2023/09/14 03:10:48;;;;;;;;;;;;;;;15.80;100.00;96931.19;5167983;27;20229;-73
2023/09/14 03:13:14;;;;;;;;;;;;;;;15.79;100.00;96933.03;5168001;27;20108;-76
2023/09/14 03:15:40;;;;;;;;;;;;;;;15.82;100.00;96929.88;5167460;27;19997;-71
2023/09/14 03:18:06;;;;;;;;;;;;;;;15.85;100.00;96931.25;5167433;27;20013;-70
2023/09/14 03:20:31;;;;;;;;;;;;;;;15.87;100.00;96929.16;5167495;27;19959;-70
2023/09/14 03:22:59;;;;;;;;;;;;;;;15.87;100.00;96936.31;5167458;27;19961;-70
2023/09/14 03:25:25;;;;;;;;;;;;;;;15.90;100.00;96935.84;5167440;27;19949;-70
2023/09/14 03:27:50;;;;;;;;;;;;;;;15.92;100.00;96939.84;5167092;27;20173;-70
2023/09/14 03:30:16;;;;;;;;;;;;;;;15.92;100.00;96942.50;5149313;27;19994;-72
2023/09/14 03:32:42;;;;;;;;;;;;;;;15.93;100.00;96946.72;5167302;27;19964;-73
2023/09/14 03:35:07;;;;;;;;;;;;;;;15.95;100.00;96944.66;5167372;27;20245;-73
2023/09/14 03:37:35;;;;;;;;;;;;;;;15.97;100.00;96944.41;5167423;27;20247;-72
2023/09/14 03:40:01;;;;;;;;;;;;;;;15.98;100.00;96938.91;5167453;27;20103;-73
2023/09/14 03:42:27;;;;;;;;;;;;;;;16.00;100.00;96939.47;5167441;27;19996;-73
2023/09/14 03:44:52;;;;;;;;;;;;;;;16.03;100.00;96941.59;5166802;27;19939;-72
2023/09/14 03:47:18;;;;;;;;;;;;;;;16.05;100.00;96938.72;5167084;27;19963;-72
2023/09/14 03:49:44;;;;;;;;;;;;;;;16.06;100.00;96936.88;5167179;27;19994;-74
2023/09/14 03:52:10;;;;;;;;;;;;;;;16.07;100.00;96935.84;5166856;27;19998;-70
2023/09/14 03:54:36;;;;;;;;;;;;;;;16.07;100.00;96941.13;5148551;27;19949;-69
2023/09/14 03:57:02;;;;;;;;;;;;;;;16.08;100.00;96935.59;5166574;27;19951;-70
2023/09/14 03:59:27;;;;;;;;;;;;;;;16.10;100.00;96938.78;5166879;27;20018;-70
2023/09/14 04:01:54;;;;;;;;;;;;;;;16.12;100.00;96941.22;5166892;27;20184;-70
2023/09/14 04:04:19;;;;;;;;;;;;;;;16.12;100.00;96936.72;5166918;27;19964;-70
2023/09/14 04:06:46;;;;;;;;;;;;;;;16.14;100.00;96942.56;5166897;27;19953;-73
2023/09/14 04:09:12;;;;;;;;;;;;;;;16.15;100.00;96932.81;5167049;27;20172;-73
2023/09/14 04:11:38;;;;;;;;;;;;;;;16.15;100.00;96932.81;5166895;27;19977;-72
2023/09/14 04:14:04;;;;;;;;;;;;;;;16.14;100.00;96942.56;5166842;27;20135;-73
2023/09/14 04:16:30;;;;;;;;;;;;;;;16.15;100.00;96940.75;5166470;27;19966;-72
2023/09/14 04:19:00;;;;;;;;;;;;;;;16.13;100.00;96940.97;5166642;27;19953;-72
2023/09/14 04:21:27;;;;;;;;;;;;;;;16.14;100.00;96941.78;5166403;27;19966;-73
2023/09/14 04:23:52;;;;;;;;;;;;;;;16.13;100.00;96943.63;5166464;27;19956;-73
2023/09/14 04:26:19;;;;;;;;;;;;;;;16.13;100.00;96940.19;5166474;27;19954;-73
2023/09/14 04:28:45;;;;;;;;;;;;;;;16.14;100.00;96941.78;5166408;27;19957;-76
2023/09/14 04:31:11;;;;;;;;;;;;;;;16.15;100.00;96953.97;5148018;27;20015;-75
2023/09/14 04:33:37;;;;;;;;;;;;;;;16.15;100.00;96946.03;5166516;27;19958;-76
2023/09/14 04:36:05;;;;;;;;;;;;;;;16.15;100.00;96940.75;5166462;27;19963;-75
2023/09/14 04:38:32;;;;;;;;;;;;;;;16.15;100.00;96946.84;5166675;27;19949;-75
2023/09/14 04:41:01;;;;;;;;;;;;;;;16.16;100.00;96948.41;5166564;27;19953;-76
2023/09/14 04:43:28;;;;;;;;;;;;;;;16.12;100.00;96949.94;5166923;27;19945;-80
2023/09/14 04:45:54;;;;;;;;;;;;;;;16.08;100.00;96948.81;5170731;27;20282;-79
2023/09/14 04:48:19;;;;;;;;;;;;;;;16.08;100.00;96954.09;5170607;27;19962;-80
2023/09/14 04:50:45;;;;;;;;;;;;;;;16.10;100.00;96951.22;5170440;27;19958;-79
2023/09/14 04:53:11;;;;;;;;;;;;;;;16.12;100.00;96951.78;5170430;27;20289;-79
2023/09/14 04:55:37;;;;;;;;;;;;;;;16.13;100.00;96950.75;5170401;27;20013;-79
2023/09/14 04:58:02;;;;;;;;;;;;;;;16.13;100.00;96953.41;5170448;27;19955;-80
2023/09/14 05:00:28;;;;;;;;;;;;;;;16.14;100.00;96950.50;5170009;27;19958;-79
2023/09/14 05:02:54;;;;;;;;;;;;;;;16.14;100.00;96953.16;5170428;27;20010;-73
2023/09/14 05:05:20;;;;;;;;;;;;;;;16.14;100.00;96950.50;5170414;27;20001;-83
2023/09/14 05:07:45;;;;;;;;;;;;;;;16.14;100.00;96952.34;5170578;27;19971;-84
2023/09/14 05:10:13;;;;;;;;;;;;;;;16.14;100.00;96947.84;5151983;27;20121;-83
2023/09/14 05:12:39;;;;;;;;;;;;;;;16.15;100.00;96946.84;5169895;27;19950;-83
2023/09/14 05:15:05;;;;;;;;;;;;;;;16.15;100.00;96952.13;5169844;27;19951;-84
2023/09/14 05:17:30;;;;;;;;;;;;;;;16.15;100.00;96953.97;5156670;27;19954;-83
2023/09/14 05:19:56;;;;;;;;;;;;;;;16.16;100.00;96963.50;5151469;27;20032;-74
2023/09/14 05:22:25;;;;;;;;;;;;;;;16.16;100.00;96961.66;5169886;27;20283;-72
2023/09/14 05:24:51;;;;;;;;;;;;;;;16.19;100.00;96958.53;5169996;27;19954;-73
2023/09/14 05:27:17;;;;;;;;;;;;;;;16.19;100.00;96963.00;5169833;27;19956;-74
2023/09/14 05:29:44;;;;;;;;;;;;;;;16.21;100.00;96959.09;5169386;27;19961;-73
2023/09/14 05:32:10;;;;;;;;;;;;;;;16.20;100.00;96968.06;5169939;27;19955;-74
2023/09/14 05:34:37;;;;;;;;;;;;;;;16.21;100.00;96974.16;5169303;27;20181;-73
2023/09/14 05:37:03;;;;;;;;;;;;;;;16.19;100.00;96966.47;5169895;27;19951;-74
2023/09/14 05:39:28;;;;;;;;;;;;;;;16.20;100.00;96965.41;5169889;27;19989;-83
2023/09/14 05:41:54;;;;;;;;;;;;;;;16.20;100.00;96970.72;5169242;27;19948;-76
2023/09/14 05:44:20;;;;;;;;;;;;;;;16.19;100.00;96965.66;5169358;27;19957;-76
2023/09/14 05:46:46;;;;;;;;;;;;;;;16.19;100.00;96970.94;5169210;27;20001;-76
2023/09/14 05:49:12;;;;;;;;;;;;;;;16.20;100.00;96962.78;5169026;27;19962;-76
2023/09/14 05:51:38;;;;;;;;;;;;;;;16.20;100.00;96969.91;5169111;27;20299;-76
2023/09/14 05:54:03;;;;;;;;;;;;;;;16.20;100.00;96964.63;5169255;27;20289;-76
2023/09/14 05:56:29;;;;;;;;;;;;;;;16.20;100.00;96969.91;5167892;27;20241;-79
2023/09/14 05:58:55;;;;;;;;;;;;;;;16.21;100.00;96964.41;5150980;27;20174;-76
2023/09/14 06:01:21;;;;;;;;;;;;;;;16.23;100.00;96969.44;5169318;27;19963;-76
2023/09/14 06:03:47;;;;;;;;;;;;;;;16.25;100.00;96972.63;5169270;27;20001;-76
2023/09/14 06:06:12;;;;;;;;;;;;;;;16.28;100.00;96974.03;5169317;27;19998;-75
2023/09/14 06:08:40;;;;;;;;;;;;;;;16.31;100.00;96974.31;5169214;27;20270;-76
2023/09/14 06:11:06;;;;;;;;;;;;;;;16.31;100.00;96974.31;5169238;27;19955;-75
2023/09/14 06:13:33;;;;;;;;;;;;;;;16.31;100.00;96987.56;5167795;27;19959;-76
2023/09/14 06:15:59;;;;;;;;;;;;;;;16.31;100.00;96982.25;5168978;27;19989;-75
2023/09/14 06:18:24;;;;;;;;;;;;;;;16.29;100.00;96979.03;5168995;27;19982;-71
2023/09/14 06:20:50;;;;;;;;;;;;;;;16.26;100.00;96979.53;5168735;27;20245;-71
2023/09/14 06:23:16;;;;;;;;;;;;;;;16.24;100.00;96982.41;5168725;27;19966;-71
2023/09/14 06:25:42;;;;;;;;;;;;;;;16.26;100.00;96990.13;5168810;27;19966;-72
2023/09/14 06:28:08;;;;;;;;;;;;;;;16.29;100.00;96991.50;5168641;27;19973;-71
2023/09/14 06:30:34;;;;;;;;;;;;;;;16.31;100.00;96994.69;5168820;27;19988;-71
2023/09/14 06:33:00;;;;;;;;;;;;;;;16.33;100.00;96995.25;5168850;27;19962;-71
2023/09/14 06:35:26;;;;;;;;;;;;;;;16.33;100.00;96997.91;5168693;27;19971;-71
2023/09/14 06:37:51;;;;;;;;;;;;;;;16.35;100.00;96999.25;5168749;27;19959;-70
2023/09/14 06:40:17;;;;;;;;;;;;;;;16.34;100.00;96986.28;5168106;27;19959;-73
2023/09/14 06:42:43;;;;;;;;;;;;;;;16.34;100.00;96992.38;5168644;27;19985;-70
2023/09/14 06:45:10;;;;;;;;;;;;;;;16.31;100.00;96987.56;5168218;27;19970;-70
2023/09/14 06:47:36;;;;;;;;;;;;;;;16.28;100.00;96992.53;5168055;27;19956;-69
2023/09/14 06:50:02;;;;;;;;;;;;;;;16.27;100.00;96990.94;5168025;27;19972;-70
2023/09/14 06:52:28;;;;;;;;;;;;;;;16.24;100.00;96990.38;5149574;27;19954;-75
2023/09/14 06:54:53;;;;;;;;;;;;;;;16.24;100.00;96992.22;5168555;27;19995;-78
2023/09/14 06:57:19;;;;;;;;;;;;;;;16.23;100.00;96988.78;5149738;27;20316;-82
2023/09/14 06:59:45;;;;;;;;;;;;;;;16.24;100.00;96998.31;5149635;27;19968;-82
2023/09/14 07:02:11;;;;;;;;;;;;;;;16.28;100.00;96995.19;5168263;27;20001;-82
2023/09/14 07:04:37;;;;;;;;;;;;;;;16.31;100.00;96984.09;5168164;27;19964;-82
2023/09/14 07:07:03;;;;;;;;;;;;;;;16.32;100.00;96996.31;5167747;27;19961;-82
2023/09/14 07:09:28;;;;;;;;;;;;;;;16.35;100.00;96995.81;5167472;27;19963;-81
2023/09/14 07:11:54;;;;;;;;;;;;;;;16.38;100.00;96996.16;5150023;27;19975;-73
2023/09/14 07:14:20;;;;;;;;;;;;;;;16.42;100.00;96991.97;5167602;27;20263;-73
2023/09/14 07:16:46;;;;;;;;;;;;;;;16.46;100.00;96999.41;5149719;27;19959;-73
2023/09/14 07:19:13;;;;;;;;;;;;;;;16.50;100.00;97001.34;5167563;27;19952;-72
2023/09/14 07:21:39;;;;;;;;;;;;;;;16.53;100.00;96998.22;5168076;27;19960;-72
2023/09/14 07:24:05;;;;;;;;;;;;;;;16.53;100.00;97002.72;5167751;27;19994;-73
2023/09/14 07:26:31;;;;;;;;;;;;;;;16.49;100.00;96997.09;5167500;27;19957;-72
2023/09/14 07:28:58;;;;;;;;;;;;;;;16.50;100.00;97005.84;5167440;27;19963;-81
2023/09/14 07:31:24;;;;;;;;;;;;;;;16.51;100.00;97008.25;5167602;27;19956;-70
2023/09/14 07:33:50;;;;;;;;;;;;;;;16.53;100.00;97000.06;5167610;27;19959;-74
2023/09/14 07:36:16;;;;;;;;;;;;;;;16.50;100.00;97009.28;5148955;27;19962;-74
2023/09/14 07:38:41;;;;;;;;;;;;;;;16.47;100.00;97011.63;5166935;27;19967;-74
2023/09/14 07:41:07;;;;;;;;;;;;;;;16.44;100.00;97012.88;5167475;27;19958;-74
2023/09/14 07:43:33;;;;;;;;;;;;;;;16.43;100.00;97012.09;5167689;27;20033;-73
2023/09/14 07:45:59;;;;;;;;;;;;;;;16.44;100.00;97020.84;5166911;27;19991;-74
2023/09/14 07:48:25;;;;;;;;;;;;;;;16.48;100.00;97014.00;5166944;27;20251;-74
2023/09/14 07:50:52;;;;;;;;;;;;;;;16.55;100.00;97014.69;5148530;27;19977;-76
2023/09/14 07:53:18;;;;;;;;;;;;;;;16.64;100.00;97017.72;5167090;27;20236;-77
2023/09/14 07:55:45;;;;;;;;;;;;;;;16.72;100.00;97021.81;5166994;27;19961;-76
2023/09/14 07:58:11;;;;;;;;;;;;;;;16.79;100.00;97025.06;5166960;27;20146;-76
2023/09/14 08:00:39;;;;;;;;;;;;;;;16.83;100.00;97023.56;5148024;27;20479;-77
2023/09/14 08:03:04;;;;;;;;;;;;;;;16.85;100.00;97024.13;5166971;27;19987;-76
2023/09/14 08:05:30;;;;;;;;;;;;;;;16.91;100.00;97027.66;5167598;27;20240;-77
2023/09/14 08:07:56;;;;;;;;;;;;;;;16.94;100.00;97017.34;5148185;27;20021;-71
2023/09/14 08:10:22;;;;;;;;;;;;;;;16.95;100.00;97029.56;5148257;27;20256;-71
2023/09/14 08:12:48;;;;;;;;;;;;;;;16.97;100.00;97032.78;5148897;27;20202;-72
2023/09/14 08:15:15;;;;;;;;;;;;;;;16.96;100.00;97033.03;5166540;27;19963;-71
2023/09/14 08:17:42;;;;;;;;;;;;;;;16.97;100.00;97032.00;5166227;27;19962;-71
2023/09/14 08:20:08;;;;;;;;;;;;;;;16.98;100.00;97034.38;5166726;27;19961;-71
2023/09/14 08:22:34;;;;;;;;;;;;;;;17.01;100.00;97027.81;5166506;27;19949;-71
2023/09/14 08:25:01;;;;;;;;;;;;;;;17.04;100.00;97040.56;5166548;27;19967;-71
2023/09/14 08:27:28;;;;;;;;;;;;;;;17.08;100.00;97038.22;5166850;27;19951;-82
2023/09/14 08:29:54;;;;;;;;;;;;;;;17.06;100.00;97029.72;5166483;27;20246;-82
2023/09/14 08:32:21;;;;;;;;;;;;;;;17.07;100.00;97033.97;5166605;27;19958;-82
2023/09/14 08:34:47;;;;;;;;;;;;;;;17.06;100.00;97042.97;5166713;27;19969;-83
2023/09/14 08:37:12;;;;;;;;;;;;;;;17.02;100.00;97048.75;5166192;27;19955;-82
2023/09/14 08:39:38;;;;;;;;;;;;;;;17.00;100.00;97050.84;5166549;27;20276;-82
2023/09/14 08:42:04;;;;;;;;;;;;;;;16.95;100.00;97042.81;5166419;27;19972;-74
2023/09/14 08:44:33;;;;;;;;;;;;;;;16.94;100.00;97058.97;5148423;27;19969;-81
2023/09/14 08:47:00;;;;;;;;;;;;;;;16.97;100.00;97045.25;5166174;27;19957;-69
2023/09/14 08:49:28;;;;;;;;;;;;;;;16.97;100.00;97056.63;5148101;27;19969;-69
2023/09/14 08:51:55;;;;;;;;;;;;;;;17.02;100.00;97048.75;5166377;27;20140;-70
2023/09/14 08:54:21;;;;;;;;;;;;;;;17.08;100.00;97048.81;5147625;27;20270;-70
2023/09/14 08:56:49;;;;;;;;;;;;;;;17.10;100.00;97042.22;5166115;27;20249;-70
2023/09/14 08:59:16;;;;;;;;;;;;;;;17.14;100.00;97045.19;5166329;27;20110;-70
2023/09/14 09:01:43;;;;;;;;;;;;;;;17.14;100.00;97038.03;5166659;27;19960;-74
2023/09/14 09:04:10;;;;;;;;;;;;;;;17.09;100.00;97047.75;5166428;27;19949;-69
2023/09/14 09:06:36;;;;;;;;;;;;;;;17.07;100.00;97044.56;5166343;27;19959;-70
2023/09/14 09:09:02;;;;;;;;;;;;;;;17.12;100.00;97040.13;5165818;27;19962;-70
2023/09/14 09:11:28;;;;;;;;;;;;;;;17.21;100.00;97036.00;5166454;27;19959;-70
2023/09/14 09:13:54;;;;;;;;;;;;;;;17.31;100.00;97031.91;5165849;27;19961;-69
2023/09/14 09:16:20;;;;;;;;;;;;;;;17.38;100.00;97035.16;5166344;27;19958;-70
2023/09/14 09:19:02;;;;;;;;;;;;;;;17.41;100.00;97024.88;5165903;27;19955;-70
2023/09/14 09:21:29;;;;;;;;;;;;;;;17.49;100.00;97030.78;5147705;27;19964;-74
2023/09/14 09:23:55;;;;;;;;;;;;;;;17.47;100.00;97025.75;5166240;27;20258;-72
2023/09/14 09:26:20;;;;;;;;;;;;;;;17.45;100.00;97031.28;5165599;27;19953;-73
2023/09/14 09:28:47;;;;;;;;;;;;;;;17.49;100.00;97033.41;5147274;27;20199;-73
2023/09/14 09:31:13;;;;;;;;;;;;;;;17.52;100.00;97032.94;5169735;27;19963;-72
2023/09/14 09:33:40;;;;;;;;;;;;;;;17.53;100.00;97031.88;5169973;27;19937;-73
2023/09/14 09:36:18;;;;;;;;;;;;;;;17.52;100.00;97038.25;5169433;27;19973;-73
2023/09/14 09:38:45;;;;;;;;;;;;;;;17.54;100.00;97036.16;5169541;27;19948;-72
2023/09/14 09:41:11;;;;;;;;;;;;;;;17.61;100.00;97044.72;5169531;27;19976;-82
2023/09/14 09:43:38;;;;;;;;;;;;;;;17.70;100.00;97034.44;5169542;27;20226;-81
2023/09/14 09:46:13;;;;;;;;;;;;;;;17.73;100.00;97023.38;5169545;27;20241;-81
2023/09/14 09:48:38;;;;;;;;;;;;;;;17.77;100.00;97027.91;5169514;27;19954;-81
2023/09/14 09:51:04;;;;;;;;;;;;;;;17.83;100.00;97026.16;5169554;27;19963;-82
2023/09/14 09:53:31;;;;;;;;;;;;;;;17.92;100.00;97021.19;5169594;27;19952;-81
2023/09/14 09:55:57;;;;;;;;;;;;;;;18.01;100.00;97014.38;5169085;27;19958;-73
2023/09/14 09:58:33;;;;;;;;;;;;;;;18.12;100.00;97012.59;5169583;27;20276;-77
2023/09/14 10:00:58;;;;;;;;;;;;;;;18.21;100.00;97008.47;5150615;27;19952;-81
2023/09/14 10:03:25;;;;;;;;;;;;;;;18.32;100.00;97012.78;5151103;27;19959;-82
2023/09/14 10:05:51;;;;;;;;;;;;;;;18.48;100.00;97012.91;5150954;27;19964;-82
2023/09/14 10:08:18;;;;;;;;;;;;;;;18.67;100.00;96998.19;5150538;27;19959;-81
2023/09/14 10:10:51;;;;;;;;;;;;;;;18.79;100.00;97005.97;5150608;27;19973;-82
2023/09/14 10:13:18;;;;;;;;;;;;;;;18.94;100.00;97022.03;5133631;27;19962;-82
2023/09/14 10:15:45;;;;;;;;;;;;;;;19.17;100.00;97012.00;5168878;27;20175;-69
2023/09/14 10:18:12;;;;;;;;;;;;;;;19.35;100.00;96984.97;5169244;27;19953;-70
2023/09/14 10:20:38;;;;;;;;;;;;;;;19.53;100.00;96999.69;5169165;27;19961;-70
2023/09/14 10:23:05;;;;;;;;;;;;;;;19.72;100.00;96977.91;5169078;27;19954;-70
2023/09/14 10:25:31;;;;;;;;;;;;;;;19.86;100.00;96989.66;5168970;27;20244;-70
2023/09/14 10:27:58;;;;;;;;;;;;;;;19.94;100.00;96994.47;5169197;27;19959;-71
2023/09/14 10:30:24;;;;;;;;;;;;;;;20.11;100.00;96993.41;5169062;27;19975;-70
2023/09/14 10:32:52;;;;;;;;;;;;;;;20.26;100.00;96967.59;5168876;27;19962;-83
2023/09/14 10:35:18;;;;;;;;;;;;;;;20.50;100.00;96976.91;5168760;27;19960;-72
2023/09/14 10:37:45;;;;;;;;;;;;;;;20.63;100.00;96939.84;5168511;27;20293;-71
2023/09/14 10:40:12;;;;;;;;;;;;;;;20.73;98.09;96925.72;5168696;27;19952;-72
2023/09/14 10:42:39;;;;;;;;;;;;;;;20.82;100.00;96963.25;5149066;27;20241;-72
2023/09/14 10:45:05;;;;;;;;;;;;;;;20.98;100.00;96950.69;5168038;27;19956;-71
2023/09/14 10:47:36;;;;;;;;;;;;;;;20.88;94.96;96901.66;5168571;27;19962;-71
2023/09/14 10:50:06;;;;;;;;;;;;;;;20.89;100.00;96929.09;5168456;27;19985;-73
2023/09/14 10:52:32;;;;;;;;;;;;;;;21.01;100.00;96926.13;5168468;27;20138;-74
2023/09/14 10:54:58;;;;;;;;;;;;;;;21.16;100.00;96943.94;5168256;27;19961;-76
2023/09/14 10:57:27;;;;;;;;;;;;;;;21.38;100.00;96928.38;5149636;27;20296;-77
2023/09/14 10:59:54;;;;;;;;;;;;;;;21.56;98.98;96905.59;5167919;27;19951;-77
2023/09/14 11:02:48;;;;;;;;;;;;;;;21.75;98.19;96908.41;5167927;27;19957;-77
2023/09/14 11:05:17;;;;;;;;;;;;;;;21.98;96.64;96900.75;5167844;27;20167;-77
2023/09/14 11:07:44;;;;;;;;;;;;;;;22.01;93.76;96892.19;5168337;27;19962;-78
2023/09/14 11:10:14;;;;;;;;;;;;;;;22.02;95.90;96901.78;5149461;27;19973;-74
2023/09/14 11:12:40;;;;;;;;;;;;;;;22.13;90.15;96857.09;5168022;27;19953;-81
2023/09/14 11:15:15;;;;;;;;;;;;;;;22.23;92.13;96875.72;5168175;27;19942;-82
2023/09/14 11:17:45;;;;;;;;;;;;;;;22.36;91.02;96866.22;5167966;27;19968;-82
2023/09/14 11:20:20;;;;;;;;;;;;;;;22.58;95.44;96887.91;5149054;27;19962;-81
2023/09/14 11:22:49;;;;;;;;;;;;;;;22.74;89.28;96848.44;5167604;27;19960;-81
2023/09/14 11:25:41;;;;;;;;;;;;;;;22.83;78.84;96790.56;5167210;27;20124;-83
2023/09/14 11:28:07;;;;;;;;;;;;;;;22.70;77.87;96826.81;5167719;27;19956;-77
2023/09/14 11:30:41;;;;;;;;;;;;;;;22.70;84.92;96888.31;5167637;27;19964;-74
2023/09/14 11:33:08;;;;;;;;;;;;;;;22.89;87.21;96898.28;5167561;27;20149;-71
2023/09/14 11:35:37;;;;;;;;;;;;;;;23.06;86.08;96887.91;5149142;27;19960;-70
2023/09/14 11:38:06;;;;;;;;;;;;;;;23.24;85.81;96893.56;5167103;27;19964;-70
2023/09/14 11:40:33;;;;;;;;;;;;;;;23.35;84.80;96889.69;5167352;27;19959;-70
2023/09/14 11:43:20;;;;;;;;;;;;;;;23.40;77.66;96867.41;5167124;27;19951;-70
2023/09/14 11:45:55;;;;;;;;;;;;;;;23.46;84.91;96880.41;5167483;27;19965;-70
2023/09/14 11:48:22;;;;;;;;;;;;;;;23.46;76.50;96864.34;5167370;27;19949;-78
2023/09/14 11:50:49;;;;;;;;;;;;;;;23.52;79.72;96873.09;5167117;27;19964;-71
2023/09/14 11:53:18;;;;;;;;;;;;;;;23.55;73.90;96861.81;5149116;27;19941;-70
2023/09/14 11:55:47;;;;;;;;;;;;;;;23.41;83.93;96907.22;5166793;27;19952;-70
2023/09/14 11:58:14;;;;;;;;;;;;;;;23.53;79.37;96881.91;5167414;27;20226;-70
2023/09/14 12:00:44;;;;;;;;;;;;;;;23.68;79.64;96889.72;5148438;27;20236;-70
2023/09/14 12:03:10;;;;;;;;;;;;;;;23.80;76.66;96881.28;5167219;27;19952;-70
2023/09/14 12:05:36;;;;;;;;;;;;;;;23.74;74.66;96869.03;5166800;27;19987;-71
2023/09/14 12:08:12;;;;;;;;;;;;;;;23.69;77.57;96877.94;5167139;27;19976;-70
2023/09/14 12:10:38;;;;;;;;;;;;;;;23.73;77.94;96884.28;5166984;27;19968;-70
2023/09/14 12:13:14;;;;;;;;;;;;;;;23.76;76.79;96872.19;5166811;27;19957;-70
2023/09/14 12:15:44;;;;;;;;;;;;;;;23.78;79.56;96881.56;5166322;27;19961;-71
2023/09/14 12:18:11;;;;;;;;;;;;;;;23.89;78.22;96871.47;5166845;27;19967;-70
2023/09/14 12:20:38;;;;;;;;;;;;;;;23.98;74.82;96861.69;5166863;27;20140;-70
2023/09/14 12:23:04;;;;;;;;;;;;;;;24.04;77.21;96875.78;5166370;27;19964;-72
2023/09/14 12:25:30;;;;;;;;;;;;;;;24.08;80.25;96882.13;5166450;27;19955;-81
2023/09/14 12:27:56;;;;;;;;;;;;;;;24.07;75.18;96856.44;5166689;27;19971;-82
2023/09/14 12:30:23;;;;;;;;;;;;;;;24.09;75.21;96867.66;5148121;27;19959;-82
2023/09/14 12:32:49;;;;;;;;;;;;;;;24.04;75.29;96860.50;5166423;27;19965;-83
2023/09/14 12:35:16;;;;;;;;;;;;;;;24.00;72.84;96846.13;5166653;27;19958;-82
2023/09/14 12:37:43;;;;;;;;;;;;;;;23.99;78.47;96865.16;5148162;27;20239;-81